Latest Weather Observations for Gayndah

IDQ60801

Issued at 5:22 pm EST Friday 22 June 2018 (issued every 10 minutes, with the page automatically refreshed every 10 minutes)

About weather observations | Map of weather stations | Latest weather observations for QLD | Other Formats
Station Details ID: 039066 Name: GAYNDAH AIRPORT Lat: -25.62 Lon: 151.62 Height: 110.9 m
Data from the previous 72 hours. | See also: Recent months at Gayndah
Date/Time
EST
Temp
°C
App
Temp
°C
Dew
Point
°C
Rel
Hum
%
Delta-T
°C
Wind Press
QNH
hPa
Press
MSL
hPa
Rain since
9am
mm
Dir  Spd
km/h
Gust
km/h
Spd
kts
Gust
kts
22/05:00pm 20.5 18.3 7.8 44 6.6 NE 9 11 5 6 1023.4 1023.3 -
22/04:30pm 21.6 19.2 7.1 39 7.5 E 9 13 5 7 1023.2 1023.1 -
22/04:00pm 21.5 18.6 6.6 38 7.6 ENE 11 15 6 8 1023.1 1023.0 -
22/03:30pm 21.8 19.4 6.9 38 7.7 E 9 15 5 8 1022.9 1022.8 -
22/03:00pm 22.6 18.6 6.8 36 8.1 ESE 17 28 9 15 1022.9 1022.8 -
22/02:30pm 23.0 20.2 7.1 36 8.3 ENE 11 15 6 8 1022.9 1022.8 -
22/02:00pm 22.5 19.6 6.7 36 8.1 NE 11 17 6 9 1023.0 1022.9 -
22/01:30pm 22.2 19.6 7.6 39 7.6 E 11 20 6 11 1023.3 1023.2 -
22/01:00pm 21.8 19.8 8.7 43 6.9 ESE 9 13 5 7 1023.7 1023.5 -
22/12:30pm 22.6 19.8 8.7 41 7.4 SSE 13 20 7 11 1024.2 1024.0 -
22/12:00pm 21.6 19.2 8.5 43 6.9 ESE 11 20 6 11 1024.8 1024.6 -
22/11:30am 21.1 19.1 10.0 49 6.0 E 11 24 6 13 1025.3 1025.2 -
22/11:00am 20.8 17.9 9.7 49 5.9 ESE 15 20 8 11 1025.8 1025.7 -
22/10:30am 20.1 18.4 9.7 51 5.6 ENE 9 17 5 9 1026.1 1026.0 -
22/08:00am 9.4 9.1 8.8 96 0.3 CALM 0 0 0 0 1026.1 1026.0 0.0
22/07:30am 6.8 6.0 6.4 97 0.2 CALM 0 0 0 0 1026.0 1025.9 0.0
22/07:00am 5.2 4.0 4.6 96 0.3 CALM 0 0 0 0 1025.7 1025.6 0.0
22/06:30am 5.1 3.9 4.5 96 0.3 CALM 0 0 0 0 1025.4 1025.3 0.0
22/06:00am 4.6 2.8 3.7 94 0.4 NNE 2 4 1 2 1024.9 1024.7 0.0
22/05:30am 5.7 4.6 5.1 96 0.3 CALM 0 0 0 0 1024.5 1024.3 0.0
22/05:00am 5.3 4.1 4.6 95 0.3 CALM 0 0 0 0 1024.4 1024.2 0.0
22/04:30am 5.4 3.5 4.7 95 0.3 WSW 4 6 2 3 1024.3 1024.1 0.0
22/04:00am 6.1 5.1 5.4 95 0.3 CALM 0 0 0 0 1024.4 1024.2 0.0
22/03:30am 5.7 4.2 4.8 94 0.4 WNW 2 7 1 4 1024.4 1024.2 0.0
22/03:00am 6.5 4.8 5.8 95 0.3 WSW 4 6 2 3 1024.3 1024.1 0.0
22/02:30am 6.7 5.3 5.7 93 0.4 SSW 2 4 1 2 1024.5 1024.3 0.0
22/02:00am 7.3 5.7 6.2 93 0.5 WSW 4 6 2 3 1024.7 1024.5 0.0
22/01:30am 8.2 6.8 7.3 94 0.4 WSW 4 6 2 3 1024.8 1024.6 0.0
22/01:00am 8.6 7.3 7.8 95 0.4 SSW 4 4 2 2 1025.0 1024.8 0.0
22/12:30am 8.0 6.5 6.8 92 0.6 SW 4 6 2 3 1025.0 1024.8 0.0
22/12:00am 8.4 7.6 6.7 89 0.8 CALM 0 0 0 0 1025.0 1024.8 0.0
 
Date/Time
EST
Temp
°C
App
Temp
°C
Dew
Point
°C
Rel
Hum
%
Delta-T
°C
Wind Press
QNH
hPa
Press
MSL
hPa
Rain since
9am
mm
Dir  Spd
km/h
Gust
km/h
Spd
kts
Gust
kts
21/11:30pm 9.1 8.5 7.4 89 0.8 CALM 0 0 0 0 1025.1 1025.0 0.0
21/11:00pm 10.2 9.9 8.5 89 0.8 CALM 0 0 0 0 1025.2 1025.1 0.0
21/10:30pm 10.1 9.6 7.7 85 1.2 CALM 0 0 0 0 1025.2 1025.1 0.0
21/10:00pm 11.0 10.6 8.2 83 1.4 CALM 0 0 0 0 1025.1 1025.0 0.0
21/09:30pm 11.9 11.5 8.4 79 1.7 CALM 0 0 0 0 1025.0 1024.8 0.0
21/09:00pm 13.2 12.3 9.1 76 2.1 NNE 4 6 2 3 1024.9 1024.7 0.0
21/08:30pm 15.3 14.0 10.1 71 2.7 NNE 7 11 4 6 1024.8 1024.6 0.0
21/08:00pm 16.3 15.1 10.2 67 3.2 E 7 11 4 6 1024.5 1024.3 0.0
21/07:30pm 16.3 15.1 10.2 67 3.2 ENE 7 9 4 5 1024.3 1024.1 0.0
21/07:00pm 15.9 14.7 8.2 60 3.9 NNE 4 4 2 2 1024.0 1023.8 0.0
21/06:30pm 16.5 15.1 7.4 55 4.6 NE 4 6 2 3 1023.5 1023.4 0.0
21/06:00pm 17.6 15.7 7.4 51 5.1 E 7 9 4 5 1022.8 1022.7 0.0
21/05:30pm 19.1 16.5 5.9 42 6.5 E 9 13 5 7 1022.5 1022.4 0.0
21/05:00pm 21.2 18.8 5.1 35 7.9 E 7 13 4 7 1022.0 1021.9 0.0
21/04:30pm 22.7 20.2 4.7 31 8.9 ESE 7 15 4 8 1021.7 1021.6 0.0
21/04:00pm 23.7 22.3 3.6 27 9.8 CALM 0 4 0 2 1021.4 1021.3 0.0
21/03:30pm 23.3 20.6 2.7 26 9.9 SSE 6 9 3 5 1021.3 1021.2 0.0
21/03:00pm 23.7 20.8 2.5 25 10.1 NE 7 15 4 8 1021.4 1021.3 0.0
21/02:30pm 23.5 20.8 2.4 25 10.1 SSW 6 13 3 7 1021.5 1021.4 0.0
21/02:00pm 23.3 20.1 1.0 23 10.3 S 7 15 4 8 1021.8 1021.7 0.0
21/01:30pm 22.9 20.1 1.9 25 9.9 SSE 6 11 3 6 1021.9 1021.8 0.0
21/01:00pm 23.0 19.4 3.0 27 9.6 SSE 11 19 6 10 1022.3 1022.2 0.0
21/12:30pm 22.5 19.3 3.1 28 9.3 S 9 19 5 10 1022.9 1022.8 0.0
21/12:00pm 22.0 19.2 5.0 33 8.4 ESE 9 17 5 9 1023.5 1023.4 0.0
21/11:30am 21.6 19.0 6.3 37 7.8 ESE 9 22 5 12 1024.0 1023.8 0.0
21/11:00am 20.7 18.7 7.0 41 7.0 E 7 11 4 6 1024.6 1024.4 0.0
21/10:30am 19.4 17.5 6.5 43 6.5 N 6 9 3 5 1024.9 1024.7 0.0
21/10:00am 17.5 16.2 5.8 46 5.7 ESE 2 6 1 3 1025.1 1025.0 0.0
21/09:30am 15.7 14.0 5.9 52 4.7 NW 4 4 2 2 1025.2 1025.1 0.0
21/09:00am 12.9 10.8 5.8 62 3.3 W 6 7 3 4 1025.3 1025.2 0.0
21/08:30am 10.8 9.1 6.0 72 2.2 WSW 4 6 2 3 1025.4 1025.3 0.0
21/08:00am 8.3 7.4 5.9 85 1.1 CALM 0 6 0 3 1025.2 1025.1 0.0
21/07:30am 5.6 4.5 4.9 95 0.3 CALM 0 0 0 0 1025.0 1024.8 0.0
21/07:00am 3.2 1.6 2.3 94 0.4 CALM 0 0 0 0 1024.7 1024.5 0.0
21/06:30am 3.2 1.6 2.2 93 0.4 CALM 0 0 0 0 1024.5 1024.3 0.0
21/06:00am 4.0 2.1 3.0 93 0.4 ENE 2 4 1 2 1023.8 1023.6 0.0
21/05:30am 3.8 2.2 2.5 91 0.5 CALM 0 0 0 0 1023.2 1023.1 0.0
21/05:00am 5.1 2.9 3.4 89 0.7 WSW 4 4 2 2 1022.9 1022.8 0.0
21/04:30am 6.4 3.7 5.5 94 0.4 W 9 13 5 7 1023.0 1022.9 0.0
21/04:00am 5.0 2.9 4.0 93 0.4 W 4 6 2 3 1022.8 1022.7 0.0
21/03:30am 4.3 2.4 2.8 90 0.6 NNE 2 4 1 2 1022.4 1022.3 0.0
21/03:00am 4.9 3.5 3.4 90 0.6 CALM 0 0 0 0 1022.5 1022.4 0.0
21/02:30am 5.9 4.3 4.7 92 0.5 WSW 2 4 1 2 1022.6 1022.5 0.0
21/02:00am 5.6 3.2 4.2 91 0.6 SW 6 6 3 3 1022.9 1022.8 0.0
21/01:30am 6.0 4.8 4.6 91 0.6 CALM 0 0 0 0 1023.0 1022.9 0.0
21/01:00am 6.2 5.0 4.4 88 0.8 CALM 0 0 0 0 1023.2 1023.1 0.0
21/12:30am 7.1 6.1 5.7 91 0.6 CALM 0 0 0 0 1023.1 1023.0 0.0
21/12:00am 7.1 6.1 5.4 89 0.8 CALM 0 0 0 0 1023.2 1023.1 0.0
 
Date/Time
EST
Temp
°C
App
Temp
°C
Dew
Point
°C
Rel
Hum
%
Delta-T
°C
Wind Press
QNH
hPa
Press
MSL
hPa
Rain since
9am
mm
Dir  Spd
km/h
Gust
km/h
Spd
kts
Gust
kts
20/11:30pm 7.7 6.7 5.5 86 1.0 CALM 0 0 0 0 1023.2 1023.1 0.0
20/11:00pm 8.0 7.0 5.6 85 1.1 CALM 0 0 0 0 1023.3 1023.2 0.0
20/10:30pm 8.3 7.1 4.7 78 1.6 CALM 0 0 0 0 1023.4 1023.3 0.0
20/10:00pm 9.3 8.4 5.9 79 1.6 CALM 0 0 0 0 1023.2 1023.1 0.0
20/09:30pm 10.0 8.8 4.8 70 2.3 CALM 0 2 0 1 1023.3 1023.2 0.0
20/09:00pm 10.9 9.8 5.0 67 2.7 CALM 0 0 0 0 1023.4 1023.3 0.0
20/08:30pm 11.9 10.8 5.3 64 3.1 CALM 0 0 0 0 1023.2 1023.1 0.0
20/08:00pm 11.7 9.3 4.4 61 3.3 SSE 6 9 3 5 1023.1 1023.0 0.0
20/07:30pm 13.7 11.9 5.3 57 4.0 SE 4 6 2 3 1022.8 1022.7 0.0
20/07:00pm 14.7 12.8 4.7 51 4.7 ENE 4 4 2 2 1022.6 1022.5 0.0
20/06:30pm 15.8 13.5 4.8 48 5.2 S 6 9 3 5 1022.1 1022.0 0.0
20/06:00pm 15.4 13.5 5.0 50 4.9 SSW 4 6 2 3 1021.8 1021.7 0.0
20/05:30pm 16.9 15.6 3.9 42 6.1 CALM 0 0 0 0 1021.4 1021.3 0.0
20/05:00pm 19.8 17.7 3.9 35 7.6 E 4 4 2 2 1021.3 1021.2 0.0
20/04:30pm 21.0 18.4 4.1 33 8.2 ESE 7 11 4 6 1020.9 1020.8 0.0
20/04:00pm 21.5 18.8 3.7 31 8.6 SSE 7 11 4 6 1020.8 1020.7 0.0
20/03:30pm 21.6 18.2 3.8 31 8.6 ESE 11 15 6 8 1020.7 1020.6 0.0
20/03:00pm 22.2 18.9 4.3 31 8.8 SSE 11 17 6 9 1020.5 1020.4 0.0
20/02:30pm 22.3 19.0 4.8 32 8.7 ESE 11 17 6 9 1020.6 1020.5 0.0
20/02:00pm 21.7 18.7 3.9 31 8.6 SSW 9 17 5 9 1020.6 1020.5 0.0
20/01:30pm 21.7 19.0 3.9 31 8.6 ESE 7 15 4 8 1020.5 1020.4 0.0
20/01:00pm 21.1 17.7 3.8 32 8.3 E 11 17 6 9 1020.6 1020.5 0.0
20/12:30pm 20.1 17.5 3.3 33 8.0 ENE 6 11 3 6 1021.0 1020.9 0.0
20/12:00pm 18.8 16.2 3.0 35 7.4 S 6 9 3 5 1021.6 1021.5 0.0
20/11:30am 18.2 15.9 2.9 36 7.1 NNW 4 7 2 4 1022.1 1022.0 0.0
20/11:00am 17.2 15.0 3.1 39 6.5 NNW 4 7 2 4 1022.6 1022.5 0.0
20/10:30am 15.7 13.5 3.2 43 5.7 SW 4 9 2 5 1023.1 1023.0 0.0
20/10:00am 14.2 10.6 3.1 47 5.0 WSW 11 17 6 9 1023.7 1023.5 0.0
20/09:30am 11.9 7.9 2.9 54 4.0 WSW 13 19 7 10 1023.8 1023.6 0.0
20/09:00am 10.6 7.0 2.7 58 3.4 WSW 11 17 6 9 1023.7 1023.5 0.0
20/08:30am 9.6 6.3 2.2 60 3.1 WSW 9 15 5 8 1023.7 1023.5 0.0
20/08:00am 8.0 5.0 2.3 67 2.4 SW 7 11 4 6 1023.8 1023.6 0.0
20/07:30am 5.4 2.9 1.3 75 1.6 WSW 4 6 2 3 1024.1 1023.9 0.0
20/07:00am 2.8 -0.2 0.7 86 0.8 WSW 6 11 3 6 1023.7 1023.5 0.0
20/06:30am 3.3 -0.3 0.9 84 0.9 W 9 11 5 6 1023.2 1023.1 0.0
20/06:00am 1.4 -0.8 -1.2 83 0.9 CALM 0 0 0 0 1023.1 1023.0 0.0
20/05:30am 2.1 -0.1 -1.3 78 1.2 CALM 0 0 0 0 1022.5 1022.4 0.0
20/05:00am 2.6 0.4 -1.4 75 1.4 CALM 0 0 0 0 1021.8 1021.7 0.0
20/04:30am 4.2 1.5 0.0 74 1.6 NW 4 6 2 3 1021.7 1021.6 0.0
20/04:00am 4.3 1.4 -1.1 68 2.0 WSW 4 7 2 4 1021.8 1021.7 0.0
20/03:30am 5.7 2.0 0.1 67 2.2 SSW 9 11 5 6 1021.9 1021.8 0.0
20/03:00am 6.1 2.4 0.0 65 2.4 SSW 9 9 5 5 1022.0 1021.9 0.0
20/02:30am 5.9 2.7 -0.4 64 2.4 SSW 6 7 3 4 1022.1 1022.0 0.0
20/02:00am 6.4 3.3 0.1 64 2.4 SSW 6 7 3 4 1022.0 1021.9 0.0
20/01:30am 5.3 2.1 0.7 72 1.8 SSW 7 9 4 5 1022.1 1022.0 0.0
20/01:00am 4.2 1.0 -0.4 72 1.7 SSW 6 7 3 4 1022.0 1021.9 0.0
20/12:30am 5.8 3.0 -0.7 63 2.5 NW 4 6 2 3 1021.9 1021.8 0.0
20/12:00am 7.5 4.1 -0.9 55 3.2 SW 7 9 4 5 1021.8 1021.7 0.0
 
Date/Time
EST
Temp
°C
App
Temp
°C
Dew
Point
°C
Rel
Hum
%
Delta-T
°C
Wind Press
QNH
hPa
Press
MSL
hPa
Rain since
9am
mm
Dir  Spd
km/h
Gust
km/h
Spd
kts
Gust
kts
19/11:30pm 8.3 4.5 -0.4 54 3.4 SSW 9 11 5 6 1022.1 1022.0 0.0
19/11:00pm 7.8 4.6 -0.4 56 3.2 SW 6 9 3 5 1021.9 1021.8 0.0
19/10:30pm 7.8 4.4 -0.7 55 3.3 WSW 7 9 4 5 1021.9 1021.8 0.0
19/10:00pm 8.6 5.4 -0.4 53 3.5 WSW 6 7 3 4 1021.9 1021.8 0.0
19/09:30pm 8.9 6.1 -0.1 53 3.6 W 4 9 2 5 1021.7 1021.6 0.0
19/09:00pm 6.8 4.6 -1.8 54 3.2 CALM 0 0 0 0 1021.6 1021.5 0.0
19/08:30pm 7.8 5.2 -2.0 50 3.7 S 2 4 1 2 1021.2 1021.1 0.0
19/08:00pm 11.0 7.5 -1.4 42 4.9 SSW 7 9 4 5 1021.1 1021.0 0.0
19/07:30pm 11.2 7.8 -1.9 40 5.1 SSW 6 7 3 4 1020.8 1020.7 0.0
19/07:00pm 11.8 8.4 -1.7 39 5.3 WSW 6 7 3 4 1020.5 1020.4 0.0
19/06:30pm 12.8 9.4 -1.9 36 5.9 SW 6 9 3 5 1020.1 1020.0 0.0
19/06:00pm 13.8 10.8 -2.2 33 6.4 SW 4 6 2 3 1019.6 1019.5 0.0
19/05:30pm 15.4 10.6 -2.5 29 7.2 SSW 13 24 7 13 1019.3 1019.2 0.0

Other Formats:

Comma delimited format used in spreadsheet applications
http://www.bom.gov.au/fwo/IDQ60801/IDQ60801.95543.axf

JavaScript Object Notation format (JSON) in row-major order
http://www.bom.gov.au/fwo/IDQ60801/IDQ60801.95543.json